createdAt,value
2018-10-11T00:00:16.922Z,78.76
2018-10-11T00:01:16.930Z,79.24
2018-10-11T00:02:16.935Z,79.05
2018-10-11T00:03:16.949Z,78.66
2018-10-11T00:04:16.953Z,79.05
2018-10-11T00:05:16.954Z,78.95
2018-10-11T00:06:16.701Z,78.76
2018-10-11T00:07:16.966Z,79.05
2018-10-11T00:08:16.716Z,79.05
2018-10-11T00:09:16.978Z,79.05
2018-10-11T00:10:16.728Z,79.33
2018-10-11T00:11:16.730Z,79.14
2018-10-11T00:12:16.999Z,79.14
2018-10-11T00:13:17.054Z,79.14
2018-10-11T00:14:16.749Z,79.14
2018-10-11T00:15:17.018Z,78.76
2018-10-11T00:16:17.020Z,78.66
2018-10-11T00:17:16.768Z,78.57
2018-10-11T00:18:17.135Z,79.14
2018-10-11T00:19:17.044Z,78.76
2018-10-11T00:20:17.057Z,78.19
2018-10-11T00:21:17.062Z,78.28
2018-10-11T00:22:17.059Z,78.09
2018-10-11T00:23:17.115Z,78.66
2018-10-11T00:24:17.071Z,77.7
2018-10-11T00:25:17.086Z,78.19
2018-10-11T00:26:17.093Z,78.47
2018-10-11T00:27:17.084Z,78.86
2018-10-11T00:28:16.829Z,79
2018-10-11T00:29:16.836Z,79.58
2018-10-11T00:30:16.846Z,80.35
2018-10-11T00:31:17.112Z,80.73
2018-10-11T00:32:17.113Z,81.68
2018-10-11T00:33:17.321Z,82.07
2018-10-11T00:34:17.126Z,82.35
2018-10-11T00:35:16.871Z,83.12
2018-10-11T00:36:17.134Z,83.5
2018-10-11T00:37:17.142Z,83.5
2018-10-11T00:38:17.197Z,83.79
2018-10-11T00:39:16.894Z,83.5
2018-10-11T00:40:17.161Z,83.98
2018-10-11T00:41:17.167Z,83.69
2018-10-11T00:42:16.924Z,83.79
2018-10-11T00:43:17.180Z,84.08
2018-10-11T00:44:17.188Z,84.55
2018-10-11T00:45:16.934Z,84.17
2018-10-11T00:46:17.205Z,84.36
2018-10-11T00:47:17.206Z,84.46
2018-10-11T00:48:17.210Z,84.36
2018-10-11T00:49:16.968Z,84.65
2018-10-11T00:50:17.220Z,84.46
2018-10-11T00:51:16.984Z,84.61
2018-10-11T00:52:17.235Z,84.8
2018-10-11T00:53:17.289Z,84.84
2018-10-11T00:54:17.249Z,85.03
2018-10-11T00:55:17.251Z,84.89
2018-10-11T00:56:17.255Z,84.89
2018-10-11T00:57:17.254Z,85.18
2018-10-11T00:58:17.259Z,84.89
2018-10-11T00:59:17.263Z,85.18
2018-10-11T01:00:17.271Z,84.89
2018-10-11T01:01:17.278Z,85.18
2018-10-11T01:02:17.297Z,85.09
2018-10-11T01:03:17.298Z,84.99
2018-10-11T01:04:17.043Z,85.28
2018-10-11T01:05:17.312Z,84.7
2018-10-11T01:06:17.314Z,84.89
2018-10-11T01:07:17.326Z,84.7
2018-10-11T01:08:17.376Z,84.52
2018-10-11T01:09:17.562Z,84.7
2018-10-11T01:10:17.342Z,84.52
2018-10-11T01:11:17.341Z,84.7
2018-10-11T01:12:17.349Z,84.32
2018-10-11T01:13:17.357Z,84.89
2018-10-11T01:14:17.098Z,84.89
2018-10-11T01:15:17.102Z,84.32
2018-10-11T01:16:17.381Z,84.23
2018-10-11T01:17:17.375Z,83.94
2018-10-11T01:18:17.378Z,84.13
2018-10-11T01:19:17.381Z,84.03
2018-10-11T01:20:17.387Z,84.52
2018-10-11T01:21:17.133Z,84.42
2018-10-11T01:22:17.404Z,84.13
2018-10-11T01:23:17.610Z,84.13
2018-10-11T01:24:17.427Z,84.61
2018-10-11T01:25:17.175Z,84.52
2018-10-11T01:26:17.423Z,84.32
2018-10-11T01:27:17.432Z,84.8
2018-10-11T01:28:17.437Z,84.8
2018-10-11T01:29:17.432Z,84.8
2018-10-11T01:30:17.435Z,85.28
2018-10-11T01:31:17.456Z,84.8
2018-10-11T01:32:17.459Z,85.42
2018-10-11T01:33:17.461Z,84.99
2018-10-11T01:34:17.208Z,85.52
2018-10-11T01:35:17.476Z,85.52
2018-10-11T01:36:17.477Z,85.81
2018-10-11T01:37:17.485Z,85.42
2018-10-11T01:38:17.541Z,85.52
2018-10-11T01:39:17.497Z,85.62
2018-10-11T01:40:17.503Z,85.52
2018-10-11T01:41:17.513Z,85.81
2018-10-11T01:42:17.257Z,86.1
2018-10-11T01:43:17.520Z,86.47
2018-10-11T01:44:17.521Z,86.29
2018-10-11T01:45:17.531Z,86.19
2018-10-11T01:46:17.538Z,86.47
2018-10-11T01:47:17.540Z,86.47
2018-10-11T01:48:17.552Z,86.19
2018-10-11T01:49:17.540Z,86.29
2018-10-11T01:50:17.287Z,86.1
2018-10-11T01:51:17.550Z,86.38
2018-10-11T01:52:17.559Z,86.29
2018-10-11T01:53:17.713Z,86.1
2018-10-11T01:54:17.307Z,86.1
2018-10-11T01:55:17.574Z,86.47
2018-10-11T01:56:17.323Z,85.62
2018-10-11T01:57:17.593Z,85.9
2018-10-11T01:58:17.595Z,86
2018-10-11T01:59:17.611Z,85.81
2018-10-11T02:00:17.346Z,85.52
2018-10-11T02:01:17.614Z,85.81
2018-10-11T02:02:17.617Z,85.9
2018-10-11T02:03:17.621Z,85.62
2018-10-11T02:04:17.626Z,85.81
2018-10-11T02:05:17.632Z,85.52
2018-10-11T02:06:17.637Z,85.33
2018-10-11T02:07:17.641Z,85.52
2018-10-11T02:08:17.698Z,85.24
2018-10-11T02:09:17.738Z,85.42
2018-10-11T02:10:17.655Z,85.33
2018-10-11T02:11:17.658Z,84.95
2018-10-11T02:12:17.408Z,84.95
2018-10-11T02:13:17.674Z,85.14
2018-10-11T02:14:17.677Z,84.85
2018-10-11T02:15:17.686Z,85.05
2018-10-11T02:16:17.694Z,84.95
2018-10-11T02:17:17.694Z,84.56
2018-10-11T02:18:17.698Z,84.38
2018-10-11T02:19:17.444Z,83.9
2018-10-11T02:20:17.708Z,84.38
2018-10-11T02:21:17.452Z,84.66
2018-10-11T02:22:17.731Z,84.19
2018-10-11T02:23:17.515Z,83.8
2018-10-11T02:24:17.730Z,83.42
2018-10-11T02:25:17.474Z,83.61
2018-10-11T02:26:17.741Z,83.33
2018-10-11T02:27:17.754Z,83.33
2018-10-11T02:28:17.752Z,84.19
2018-10-11T02:29:17.753Z,84.09
2018-10-11T02:30:17.506Z,84.56
2018-10-11T02:31:17.766Z,84.85
2018-10-11T02:32:17.770Z,84.47
2018-10-11T02:33:17.790Z,84.76
2018-10-11T02:34:17.782Z,84.47
2018-10-11T02:35:17.793Z,83.99
2018-10-11T02:36:17.791Z,84.76
2018-10-11T02:37:17.799Z,84.38
2018-10-11T02:38:17.865Z,83.7
2018-10-11T02:39:17.803Z,83.23
2018-10-11T02:40:17.807Z,82.75
2018-10-11T02:41:17.817Z,82.28
2018-10-11T02:42:17.561Z,81.7
2018-10-11T02:43:17.832Z,80.65
2018-10-11T02:44:17.837Z,80.93
2018-10-11T02:45:17.842Z,80.93
2018-10-11T02:46:17.846Z,80.11
2018-10-11T02:47:17.592Z,79.54
2018-10-11T02:48:17.856Z,79.54
2018-10-11T02:49:17.862Z,79.54
2018-10-11T02:50:17.870Z,78.87
2018-10-11T02:51:17.877Z,79.16
2018-10-11T02:52:17.876Z,78.97
2018-10-11T02:53:17.935Z,79.35
2018-10-11T02:54:17.887Z,78.39
2018-10-11T02:55:17.891Z,77.92
2018-10-11T02:56:17.909Z,77.15
2018-10-11T02:57:17.904Z,76.57
2018-10-11T02:58:17.906Z,76.39
2018-10-11T02:59:17.917Z,76.2
2018-10-11T03:00:17.657Z,76.57
2018-10-11T03:01:17.921Z,76.77
2018-10-11T03:02:17.676Z,76.1
2018-10-11T03:03:17.983Z,75.81
2018-10-11T03:04:17.943Z,75.34
2018-10-11T03:05:17.943Z,75.43
2018-10-11T03:06:17.949Z,75.24
2018-10-11T03:07:17.964Z,75.34
2018-10-11T03:08:18.012Z,74.95
2018-10-11T03:09:17.966Z,74.66
2018-10-11T03:10:17.976Z,74.95
2018-10-11T03:11:17.974Z,74.57
2018-10-11T03:12:17.983Z,74.66
2018-10-11T03:13:17.985Z,74.95
2018-10-11T03:14:18.004Z,74.76
2018-10-11T03:15:18.006Z,74.57
2018-10-11T03:16:18.007Z,74.95
2018-10-11T03:17:18.012Z,74.66
2018-10-11T03:18:18.015Z,74.38
2018-10-11T03:19:18.020Z,74.09
2018-10-11T03:20:18.026Z,74.38
2018-10-11T03:21:18.041Z,74.28
2018-10-11T03:22:18.046Z,73.99
2018-10-11T03:23:18.090Z,74.28
2018-10-11T03:24:17.841Z,74.28
2018-10-11T03:25:18.050Z,73.99
2018-10-11T03:26:18.055Z,74.38
2018-10-11T03:27:18.061Z,74.38
2018-10-11T03:28:18.065Z,74.19
2018-10-11T03:29:17.811Z,74.28
2018-10-11T03:30:18.084Z,74.28
2018-10-11T03:31:17.827Z,74.38
2018-10-11T03:32:17.848Z,74.38
2018-10-11T03:33:18.145Z,74.28
2018-10-11T03:34:18.114Z,74.85
2018-10-11T03:35:18.107Z,74.57
2018-10-11T03:36:18.116Z,74.57
2018-10-11T03:37:18.120Z,74.66
2018-10-11T03:38:18.177Z,74.57
2018-10-11T03:39:18.128Z,75.05
2018-10-11T03:40:18.137Z,75.24
2018-10-11T03:41:18.135Z,75.14
2018-10-11T03:42:17.882Z,75.43
2018-10-11T03:43:18.154Z,75.05
2018-10-11T03:44:18.160Z,75.34
2018-10-11T03:45:18.164Z,75.81
2018-10-11T03:46:18.177Z,75.71
2018-10-11T03:47:18.182Z,76.67
2018-10-11T03:48:18.182Z,76.86
2018-10-11T03:49:18.186Z,76.2
2018-10-11T03:50:17.930Z,76.48
2018-10-11T03:51:18.196Z,76.57
2018-10-11T03:52:18.202Z,76.67
2018-10-11T03:53:18.258Z,76.39
2018-10-11T03:54:18.213Z,77.34
2018-10-11T03:55:17.959Z,77.06
2018-10-11T03:56:18.224Z,77.53
2018-10-11T03:57:18.228Z,77.53
2018-10-11T03:58:18.233Z,77.25
2018-10-11T03:59:18.237Z,77.34
2018-10-11T04:00:18.242Z,77.87
2018-10-11T04:01:18.246Z,77.69
2018-10-11T04:02:18.251Z,77.87
2018-10-11T04:03:18.253Z,77.87
2018-10-11T04:04:18.263Z,77.69
2018-10-11T04:05:18.255Z,78.36
2018-10-11T04:06:18.275Z,77.69
2018-10-11T04:07:18.244Z,78.36
2018-10-11T04:08:18.297Z,77.78
2018-10-11T04:09:18.287Z,78.07
2018-10-11T04:10:18.258Z,78.16
2018-10-11T04:11:18.008Z,78.36
2018-10-11T04:12:18.266Z,78.83
2018-10-11T04:13:18.274Z,78.64
2018-10-11T04:14:18.279Z,78.83
2018-10-11T04:15:18.285Z,78.74
2018-10-11T04:16:18.289Z,79.02
2018-10-11T04:17:18.301Z,78.55
2018-10-11T04:18:18.402Z,78.83
2018-10-11T04:19:18.303Z,79.6
2018-10-11T04:20:18.312Z,79.5
2018-10-11T04:21:18.317Z,79.5
2018-10-11T04:22:18.069Z,79.41
2018-10-11T04:23:18.376Z,79.75
2018-10-11T04:24:18.332Z,80.22
2018-10-11T04:25:18.336Z,79.88
2018-10-11T04:26:18.339Z,80.17
2018-10-11T04:27:18.347Z,79.85
2018-10-11T04:28:18.349Z,80.46
2018-10-11T04:29:18.355Z,80.36
2018-10-11T04:30:18.362Z,80.93
2018-10-11T04:31:18.110Z,80.51
2018-10-11T04:32:18.118Z,80.51
2018-10-11T04:33:18.121Z,80.99
2018-10-11T04:34:18.379Z,80.7
2018-10-11T04:35:18.433Z,80.8
2018-10-11T04:36:18.137Z,81.09
2018-10-11T04:37:18.142Z,80.8
2018-10-11T04:38:18.196Z,80.99
2018-10-11T04:39:18.151Z,80.99
2018-10-11T04:40:18.412Z,81.27
2018-10-11T04:41:18.163Z,81.66
2018-10-11T04:42:18.166Z,81.76
2018-10-11T04:43:18.967Z,81.85
2018-10-11T04:44:18.429Z,81.76
2018-10-11T04:45:18.184Z,82.04
2018-10-11T04:46:18.436Z,82.04
2018-10-11T04:47:18.447Z,82.32
2018-10-11T04:48:18.450Z,81.76
2018-10-11T04:49:18.198Z,82.23
2018-10-11T04:50:18.451Z,82.14
2018-10-11T04:51:18.457Z,82.52
2018-10-11T04:52:18.209Z,82.23
2018-10-11T04:53:18.466Z,82.23
2018-10-11T04:54:18.225Z,82.42
2018-10-11T04:55:18.477Z,82.52
2018-10-11T04:56:18.228Z,82.23
2018-10-11T04:57:18.483Z,81.56
2018-10-11T04:58:18.539Z,82.32
2018-10-11T04:59:18.494Z,82.04
2018-10-11T05:00:18.504Z,82.04
2018-10-11T05:01:18.505Z,82.23
2018-10-11T05:02:18.511Z,81.76
2018-10-11T05:03:18.618Z,81.85
2018-10-11T05:04:18.552Z,81.85
2018-10-11T05:05:18.337Z,82.14
2018-10-11T05:06:18.531Z,82.23
2018-10-11T05:07:18.534Z,81.85
2018-10-11T05:08:18.539Z,82.23
2018-10-11T05:09:18.544Z,81.95
2018-10-11T05:10:18.547Z,81.56
2018-10-11T05:11:18.296Z,81.76
2018-10-11T05:12:18.554Z,81.76
2018-10-11T05:13:18.610Z,81.95
2018-10-11T05:14:18.563Z,81.66
2018-10-11T05:15:18.570Z,81.09
2018-10-11T05:16:18.580Z,81.09
2018-10-11T05:17:18.663Z,81.76
2018-10-11T05:18:18.591Z,81.66
2018-10-11T05:19:18.595Z,81.27
2018-10-11T05:20:18.600Z,81.66
2018-10-11T05:21:18.732Z,81.09
2018-10-11T05:22:18.606Z,81.52
2018-10-11T05:23:18.379Z,81.27
2018-10-11T05:24:18.615Z,81.62
2018-10-11T05:25:18.615Z,82.09
2018-10-11T05:26:18.828Z,82
2018-10-11T05:27:18.624Z,81.81
2018-10-11T05:28:18.680Z,81.66
2018-10-11T05:29:18.636Z,80.95
2018-10-11T05:30:18.656Z,81.09
2018-10-11T05:31:18.654Z,80.9
2018-10-11T05:32:18.863Z,81.09
2018-10-11T05:33:18.664Z,80.85
2018-10-11T05:34:18.413Z,81.09
2018-10-11T05:35:18.671Z,80.61
2018-10-11T05:36:18.702Z,80.9
2018-10-11T05:37:18.681Z,80.9
2018-10-11T05:38:18.556Z,80.7
2018-10-11T05:39:18.712Z,80.13
2018-10-11T05:40:18.695Z,80.13
2018-10-11T05:41:18.704Z,80.22
2018-10-11T05:42:18.703Z,79.94
2018-10-11T05:43:18.760Z,79.75
2018-10-11T05:44:18.760Z,79.27
2018-10-11T05:45:18.457Z,79.56
2018-10-11T05:46:18.710Z,79.56
2018-10-11T05:47:18.466Z,79.46
2018-10-11T05:48:18.725Z,79.56
2018-10-11T05:49:18.728Z,79.36
2018-10-11T05:50:18.541Z,79.17
2018-10-11T05:51:18.744Z,79.56
2018-10-11T05:52:18.748Z,79.08
2018-10-11T05:53:18.753Z,78.99
2018-10-11T05:54:18.503Z,78.7
2018-10-11T05:55:18.769Z,78.7
2018-10-11T05:56:18.516Z,78.6
2018-10-11T05:57:18.773Z,78.6
2018-10-11T05:58:18.827Z,77.84
2018-10-11T05:59:18.780Z,77.74
2018-10-11T06:00:18.784Z,78.13
2018-10-11T06:01:18.538Z,78.13
2018-10-11T06:02:18.794Z,77.65
2018-10-11T06:03:18.824Z,77.65
2018-10-11T06:04:19.003Z,77.55
2018-10-11T06:05:18.814Z,77.45
2018-10-11T06:06:18.826Z,77.45
2018-10-11T06:07:18.821Z,77.26
2018-10-11T06:08:18.873Z,77.65
2018-10-11T06:09:18.840Z,77.17
2018-10-11T06:10:18.835Z,77.08
2018-10-11T06:11:18.586Z,77.08
2018-10-11T06:12:18.846Z,77.08
2018-10-11T06:13:18.903Z,77.17
2018-10-11T06:14:18.857Z,77.17
2018-10-11T06:15:18.861Z,76.79
2018-10-11T06:16:18.865Z,77.45
2018-10-11T06:17:18.873Z,77.5
2018-10-11T06:18:18.878Z,77.78
2018-10-11T06:19:18.879Z,76.92
2018-10-11T06:20:18.631Z,77.36
2018-10-11T06:21:18.889Z,77.3
2018-10-11T06:22:18.899Z,77.5
2018-10-11T06:23:18.897Z,77.21
2018-10-11T06:24:18.918Z,77.3
2018-10-11T06:25:18.909Z,77.21
2018-10-11T06:26:18.913Z,77.11
2018-10-11T06:27:18.913Z,76.73
2018-10-11T06:28:18.969Z,77.01
2018-10-11T06:29:18.927Z,77.11
2018-10-11T06:30:19.131Z,76.64
2018-10-11T06:31:18.683Z,77.11
2018-10-11T06:32:18.690Z,76.92
2018-10-11T06:33:18.950Z,77.11
2018-10-11T06:34:18.955Z,77.01
2018-10-11T06:35:18.963Z,77.3
2018-10-11T06:36:19.238Z,77.11
2018-10-11T06:37:18.970Z,77.4
2018-10-11T06:38:18.978Z,76.82
2018-10-11T06:39:18.983Z,77.44
2018-10-11T06:40:19.002Z,76.29
2018-10-11T06:41:18.737Z,76.77
2018-10-11T06:42:19.175Z,75.91
2018-10-11T06:43:19.054Z,76.29
2018-10-11T06:44:18.756Z,76.1
2018-10-11T06:45:19.011Z,75.91
2018-10-11T06:46:19.023Z,75.34
2018-10-11T06:47:19.013Z,75.14
2018-10-11T06:48:19.019Z,75.43
2018-10-11T06:49:18.775Z,75.43
2018-10-11T06:50:18.836Z,75.24
2018-10-11T06:51:19.036Z,75.34
2018-10-11T06:52:19.041Z,74.85
2018-10-11T06:53:18.796Z,75.09
2018-10-11T06:54:19.050Z,75.09
2018-10-11T06:55:19.067Z,75.18
2018-10-11T06:56:19.065Z,74.61
2018-10-11T06:57:19.069Z,74.22
2018-10-11T06:58:19.126Z,74.61
2018-10-11T06:59:19.090Z,74.13
2018-10-11T07:00:19.088Z,73.27
2018-10-11T07:01:19.097Z,72.79
2018-10-11T07:02:19.103Z,72.31
2018-10-11T07:03:19.108Z,72.6
2018-10-11T07:04:19.117Z,71.83
2018-10-11T07:05:19.123Z,71.45
2018-10-11T07:06:19.129Z,71.48
2018-10-11T07:07:19.283Z,71.01
2018-10-11T07:08:18.886Z,71.77
2018-10-11T07:09:19.143Z,71.3
2018-10-11T07:10:19.155Z,71.01
2018-10-11T07:11:19.164Z,71.3
2018-10-11T07:12:19.170Z,71.04
2018-10-11T07:13:18.969Z,71.33
2018-10-11T07:14:19.179Z,70.66
2018-10-11T07:15:18.929Z,70.85
2018-10-11T07:16:19.189Z,70.85
2018-10-11T07:17:18.937Z,70.18
2018-10-11T07:18:19.300Z,70.37
2018-10-11T07:19:19.251Z,70.66
2018-10-11T07:20:19.208Z,70.18
2018-10-11T07:21:19.219Z,69.99
2018-10-11T07:22:19.219Z,70.37
2018-10-11T07:23:18.974Z,69.89
2018-10-11T07:24:19.243Z,70.28
2018-10-11T07:25:18.996Z,70.18
2018-10-11T07:26:19.247Z,70.12
2018-10-11T07:27:19.257Z,69.45
2018-10-11T07:28:19.311Z,68.87
2018-10-11T07:29:19.014Z,68.97
2018-10-11T07:30:19.276Z,69.17
2018-10-11T07:31:19.280Z,68.78
2018-10-11T07:32:19.294Z,69.07
2018-10-11T07:33:19.296Z,68.87
2018-10-11T07:34:19.300Z,68.4
2018-10-11T07:35:19.250Z,68.81
2018-10-11T07:36:19.311Z,67.95
2018-10-11T07:37:19.326Z,68.24
2018-10-11T07:38:19.326Z,67.57
2018-10-11T07:39:19.335Z,67.57
2018-10-11T07:40:19.472Z,66.89
2018-10-11T07:41:19.339Z,67.38
2018-10-11T07:42:19.148Z,66.61
2018-10-11T07:43:19.156Z,66.64
2018-10-11T07:44:19.364Z,66.35
2018-10-11T07:45:19.373Z,65.97
2018-10-11T07:46:19.391Z,66.06
2018-10-11T07:47:19.521Z,65.2
2018-10-11T07:48:19.394Z,65.11
2018-10-11T07:49:19.401Z,65.3
2018-10-11T07:50:19.416Z,64.72
2018-10-11T07:51:19.412Z,64.34
2018-10-11T07:52:19.419Z,63.79
2018-10-11T07:53:19.425Z,63.79
2018-10-11T07:54:19.434Z,63.42
2018-10-11T07:55:19.476Z,62.93
2018-10-11T07:56:19.452Z,62.74
2018-10-11T07:57:19.456Z,62.65
2018-10-11T07:58:19.515Z,62.55
2018-10-11T07:59:19.475Z,61.52
2018-10-11T08:00:19.227Z,61.05
2018-10-11T08:01:19.785Z,60.85
2018-10-11T08:02:19.485Z,60.85
2018-10-11T08:03:19.516Z,60.66
2018-10-11T08:04:19.247Z,60.66
2018-10-11T08:05:19.504Z,60.47
2018-10-11T08:06:19.528Z,60.78
2018-10-11T08:07:19.768Z,59.92
2018-10-11T08:08:19.567Z,60.02
2018-10-11T08:09:19.559Z,60.31
2018-10-11T08:10:19.743Z,59.25
2018-10-11T08:11:19.825Z,59.38
2018-10-11T08:12:19.571Z,58.99
2018-10-11T08:13:19.580Z,58.89
2018-10-11T08:14:19.589Z,58.7
2018-10-11T08:15:19.596Z,57.84
2018-10-11T08:16:19.823Z,56.68
2018-10-11T08:17:19.711Z,56.49
2018-10-11T08:18:19.671Z,56.49
2018-10-11T08:19:20.417Z,57.1
2018-10-11T08:20:19.680Z,57.2
2018-10-11T08:21:19.647Z,56.43
2018-10-11T08:22:19.654Z,56.81
2018-10-11T08:23:19.413Z,56.14
2018-10-11T08:24:19.753Z,56.14
2018-10-11T08:25:20.221Z,55.4
2018-10-11T08:26:20.896Z,54.79
2018-10-11T08:27:19.868Z,54.41
2018-10-11T08:28:19.456Z,54.05
2018-10-11T08:29:19.708Z,53.76
2018-10-11T08:30:19.717Z,53.86
2018-10-11T08:31:19.729Z,53.86
2018-10-11T08:32:20.002Z,53.57
2018-10-11T08:33:20.009Z,53.47
2018-10-11T08:34:19.752Z,53.59
2018-10-11T08:35:19.761Z,53.78
2018-10-11T08:36:19.771Z,53.5
2018-10-11T08:37:19.778Z,53.78
2018-10-11T08:38:19.961Z,53.11
2018-10-11T08:39:19.797Z,52.73
2018-10-11T08:40:19.848Z,53.02
2018-10-11T08:41:19.813Z,52.47
2018-10-11T08:42:19.823Z,52.66
2018-10-11T08:43:19.928Z,51.89
2018-10-11T08:44:19.941Z,51.98
2018-10-11T08:45:19.850Z,51.79
2018-10-11T08:46:19.856Z,51.41
2018-10-11T08:47:19.863Z,51.41
2018-10-11T08:48:19.672Z,51.6
2018-10-11T08:49:19.684Z,51.5
2018-10-11T08:50:20.214Z,51.53
2018-10-11T08:51:19.901Z,51.24
2018-10-11T08:52:19.910Z,51.24
2018-10-11T08:53:19.925Z,51.34
2018-10-11T08:54:19.935Z,51.05
2018-10-11T08:55:19.988Z,51.05
2018-10-11T08:56:19.957Z,50.69
2018-10-11T08:57:19.974Z,50.69
2018-10-11T08:58:20.018Z,50.69
2018-10-11T08:59:20.332Z,50.3
2018-10-11T09:00:19.993Z,49.63
2018-10-11T09:01:19.996Z,49.82
2018-10-11T09:02:20.067Z,49.24
2018-10-11T09:03:20.243Z,49.05
2018-10-11T09:04:20.162Z,48.95
2018-10-11T09:05:20.146Z,48.97
2018-10-11T09:06:19.792Z,49.07
2018-10-11T09:07:19.804Z,48.4
2018-10-11T09:08:20.212Z,48.3
2018-10-11T09:09:20.130Z,47.44
2018-10-11T09:10:20.082Z,47.53
2018-10-11T09:11:20.165Z,47.92
2018-10-11T09:12:20.102Z,47.45
2018-10-11T09:13:20.161Z,47.44
2018-10-11T09:14:20.123Z,47.27
2018-10-11T09:15:20.132Z,46.69
2018-10-11T09:16:20.141Z,47.36
2018-10-11T09:17:20.268Z,46.88
2018-10-11T09:18:19.910Z,46.4
2018-10-11T09:19:20.171Z,46.01
2018-10-11T09:20:20.184Z,46.01
2018-10-11T09:21:20.718Z,46.13
2018-10-11T09:22:20.201Z,45.65
2018-10-11T09:23:20.412Z,45.26
2018-10-11T09:24:20.223Z,45.45
2018-10-11T09:25:20.228Z,45.45
2018-10-11T09:26:20.240Z,45.36
2018-10-11T09:27:20.248Z,45.45
2018-10-11T09:28:20.360Z,45.55
2018-10-11T09:29:20.273Z,45.18
2018-10-11T09:30:20.402Z,45.28
2018-10-11T09:31:20.293Z,45.57
2018-10-11T09:32:20.299Z,45.38
2018-10-11T09:33:20.314Z,44.7
2018-10-11T09:34:20.321Z,44.32
2018-10-11T09:35:20.332Z,44.03
2018-10-11T09:36:20.457Z,44.22
2018-10-11T09:37:20.354Z,44.34
2018-10-11T09:38:20.367Z,43.84
2018-10-11T09:39:20.374Z,43.66
2018-10-11T09:40:20.408Z,43.18
2018-10-11T09:41:20.393Z,43.37
2018-10-11T09:42:20.402Z,42.99
2018-10-11T09:43:20.462Z,42.89
2018-10-11T09:44:20.422Z,42.89
2018-10-11T09:45:20.436Z,42.72
2018-10-11T09:46:20.441Z,43.49
2018-10-11T09:47:20.475Z,42.52
2018-10-11T09:48:20.461Z,42.33
2018-10-11T09:49:20.224Z,42.14
2018-10-11T09:50:20.486Z,42.52
2018-10-11T09:51:20.496Z,42.07
2018-10-11T09:52:20.514Z,42.04
2018-10-11T09:53:20.525Z,42.07
2018-10-11T09:54:20.651Z,42.25
2018-10-11T09:55:20.545Z,42.35
2018-10-11T09:56:20.559Z,42.07
2018-10-11T09:57:20.569Z,41.48
2018-10-11T09:58:20.625Z,41.41
2018-10-11T09:59:20.591Z,41.41
2018-10-11T10:00:20.598Z,41.6
2018-10-11T10:01:20.609Z,41.21
2018-10-11T10:02:20.622Z,41.21
2018-10-11T10:03:20.633Z,41.5
2018-10-11T10:04:20.645Z,41.41
2018-10-11T10:05:20.399Z,41.31
2018-10-11T10:06:20.660Z,40.83
2018-10-11T10:07:20.420Z,40.36
2018-10-11T10:08:20.691Z,40.46
2018-10-11T10:09:20.441Z,40.09
2018-10-11T10:10:20.708Z,39.04
2018-10-11T10:11:20.720Z,38.58
2018-10-11T10:12:20.732Z,37.71
2018-10-11T10:13:20.538Z,37.34
2018-10-11T10:14:20.755Z,37.28
2018-10-11T10:15:20.769Z,37.01
2018-10-11T10:16:20.782Z,35.47
2018-10-11T10:17:20.793Z,35.19
2018-10-11T10:18:20.803Z,34.74
2018-10-11T10:19:20.817Z,33.78
2018-10-11T10:20:20.829Z,33.01
2018-10-11T10:21:21.120Z,32.94
2018-10-11T10:22:20.874Z,32.28
2018-10-11T10:23:20.875Z,31.6
2018-10-11T10:24:20.637Z,31.13
2018-10-11T10:25:20.911Z,30.57
2018-10-11T10:26:20.922Z,30.19
2018-10-11T10:27:21.406Z,30.09
2018-10-11T10:28:21.009Z,29.32
2018-10-11T10:29:20.971Z,29.04
2018-10-11T10:30:20.984Z,28.45
2018-10-11T10:31:20.752Z,28.18
2018-10-11T10:32:21.022Z,27.98
2018-10-11T10:33:21.068Z,28.11
2018-10-11T10:34:21.057Z,27.24
2018-10-11T10:35:21.085Z,27.35
2018-10-11T10:36:21.097Z,26.67
2018-10-11T10:37:20.866Z,26.67
2018-10-11T10:38:22.136Z,26.48
2018-10-11T10:39:21.156Z,25.99
2018-10-11T10:40:20.923Z,26.48
2018-10-11T10:41:20.945Z,25.51
2018-10-11T10:42:21.219Z,25.81
2018-10-11T10:43:21.029Z,25.23
2018-10-11T10:44:21.250Z,25.34
2018-10-11T10:45:21.305Z,24.86
2018-10-11T10:46:21.041Z,24.58
2018-10-11T10:47:21.069Z,23.9
2018-10-11T10:48:21.486Z,23.61
2018-10-11T10:49:21.356Z,22.92
2018-10-11T10:50:21.124Z,23.03
2018-10-11T10:51:21.146Z,23.62
2018-10-11T10:52:21.167Z,23.52
2018-10-11T10:53:21.443Z,22.95
2018-10-11T10:54:21.634Z,23.05
2018-10-11T10:55:21.493Z,23.26
2018-10-11T10:56:21.508Z,21.89
2018-10-11T10:57:21.530Z,21.6
2018-10-11T10:58:21.351Z,21.5
2018-10-11T10:59:21.577Z,21.8
2018-10-11T11:00:21.602Z,21.02
2018-10-11T11:01:21.621Z,21.13
2018-10-11T11:02:21.645Z,21.03
2018-10-11T11:03:21.667Z,20.75
2018-10-11T11:04:21.691Z,20.84
2018-10-11T11:05:21.721Z,21.15
2018-10-11T11:06:21.500Z,21.05
2018-10-11T11:07:21.942Z,20.76
2018-10-11T11:08:21.806Z,19.87
2018-10-11T11:09:21.816Z,19.68
2018-10-11T11:10:21.581Z,20.18
2018-10-11T11:11:21.858Z,20.09
2018-10-11T11:12:21.882Z,19.6
2018-10-11T11:13:21.702Z,19.4
2018-10-11T11:14:21.931Z,19.89
2018-10-11T11:15:21.952Z,19.01
2018-10-11T11:16:21.729Z,20
2018-10-11T11:17:21.749Z,18.91
2018-10-11T11:18:22.030Z,18.91
2018-10-11T11:19:22.049Z,18.62
2018-10-11T11:20:22.078Z,18.73
2018-10-11T11:21:22.102Z,18.63
2018-10-11T11:22:22.129Z,18.54
2018-10-11T11:23:22.151Z,18.54
2018-10-11T11:24:21.929Z,18.33
2018-10-11T11:25:22.337Z,18.14
2018-10-11T11:26:22.222Z,17.55
2018-10-11T11:27:22.247Z,18.73
2018-10-11T11:28:22.423Z,18.15
2018-10-11T11:29:22.300Z,18.16
2018-10-11T11:30:22.071Z,18.07
2018-10-11T11:31:22.355Z,17.38
2018-10-11T11:32:22.124Z,17.38
2018-10-11T11:33:22.410Z,17.49
2018-10-11T11:34:22.433Z,17.69
2018-10-11T11:35:22.458Z,17.49
2018-10-11T11:36:22.256Z,17.19
2018-10-11T11:37:22.506Z,17.69
2018-10-11T11:38:22.570Z,17.98
2018-10-11T11:39:22.561Z,17.99
2018-10-11T11:40:22.335Z,18.4
2018-10-11T11:41:22.616Z,18.39
2018-10-11T11:42:22.390Z,18
2018-10-11T11:43:22.818Z,18.3
2018-10-11T11:44:22.438Z,17.81
2018-10-11T11:45:22.717Z,17.71
2018-10-11T11:46:22.745Z,17.51
2018-10-11T11:47:22.517Z,18.12
2018-10-11T11:48:22.797Z,17.92
2018-10-11T11:49:22.827Z,17.42
2018-10-11T11:50:22.607Z,17.62
2018-10-11T11:51:22.624Z,17.42
2018-10-11T11:52:22.904Z,17.32
2018-10-11T11:53:22.925Z,17.72
2018-10-11T11:54:22.961Z,17.22
2018-10-11T11:55:22.982Z,17.82
2018-10-11T11:56:23.010Z,17.92
2018-10-11T11:57:23.034Z,17.72
2018-10-11T11:58:22.857Z,18.11
2018-10-11T11:59:23.092Z,17.21
2018-10-11T12:00:23.118Z,17.51
2018-10-11T12:01:23.142Z,17.6
2018-10-11T12:02:23.166Z,17.79
2018-10-11T12:03:23.194Z,17.6
2018-10-11T12:04:23.227Z,17.5
2018-10-11T12:05:23.001Z,17.3
2018-10-11T12:06:23.028Z,17.5
2018-10-11T12:07:23.307Z,17.32
2018-10-11T12:08:23.337Z,17.61
2018-10-11T12:09:23.362Z,17.9
2018-10-11T12:10:23.561Z,17.8
2018-10-11T12:11:23.165Z,18.1
2018-10-11T12:12:23.192Z,18.29
2018-10-11T12:13:23.622Z,18.7
2018-10-11T12:14:23.499Z,17.61
2018-10-11T12:15:23.526Z,18.01
2018-10-11T12:16:23.547Z,17.72
2018-10-11T12:17:23.325Z,17.34
2018-10-11T12:18:23.658Z,16.54
2018-10-11T12:19:23.637Z,16.55
2018-10-11T12:20:23.659Z,16.66
2018-10-11T12:21:23.677Z,16.36
2018-10-11T12:22:23.705Z,16.27
2018-10-11T12:23:23.787Z,15.86
2018-10-11T12:24:23.756Z,16.16
2018-10-11T12:25:23.533Z,16.17
2018-10-11T12:26:23.581Z,15.86
2018-10-11T12:27:23.843Z,16.27
2018-10-11T12:28:24.019Z,16.66
2018-10-11T12:29:23.898Z,16.75
2018-10-11T12:30:23.940Z,16.46
2018-10-11T12:31:23.957Z,17.55
2018-10-11T12:32:23.989Z,16.86
2018-10-11T12:33:24.013Z,16.47
2018-10-11T12:34:24.041Z,16.16
2018-10-11T12:35:24.067Z,16.36
2018-10-11T12:36:24.173Z,16.27
2018-10-11T12:37:24.120Z,16.27
2018-10-11T12:38:24.300Z,16.36
2018-10-11T12:39:24.179Z,16.27
2018-10-11T12:40:25.064Z,16.27
2018-10-11T12:41:23.978Z,16.27
2018-10-11T12:42:24.329Z,16.27
2018-10-11T12:43:24.034Z,16.17
2018-10-11T12:44:24.315Z,16.36
2018-10-11T12:45:24.579Z,16.66
2018-10-11T12:46:24.372Z,16.47
2018-10-11T12:47:24.143Z,16.37
2018-10-11T12:48:24.478Z,16.37
2018-10-11T12:49:24.717Z,16.77
2018-10-11T12:50:24.224Z,16.28
2018-10-11T12:51:24.506Z,16.38
2018-10-11T12:52:24.532Z,16.48
2018-10-11T12:53:24.561Z,15.89
2018-10-11T12:54:24.590Z,16.39
2018-10-11T12:55:24.614Z,16.2